createdAt,value
2022-11-27T00:01:26.078Z,5.50
2022-11-27T00:05:27.679Z,5.50
2022-11-27T00:09:30.080Z,5.50
2022-11-27T00:13:31.622Z,5.40
2022-11-27T00:17:33.189Z,5.40
2022-11-27T00:21:36.387Z,5.40
2022-11-27T00:25:38.163Z,5.40
2022-11-27T00:29:39.756Z,5.40
2022-11-27T00:33:41.559Z,5.40
2022-11-27T00:37:43.167Z,5.40
2022-11-27T00:41:44.759Z,5.30
2022-11-27T00:45:49.708Z,5.30
2022-11-27T00:49:51.275Z,5.30
2022-11-27T00:53:53.404Z,5.30
2022-11-27T00:57:55.004Z,5.30
2022-11-27T01:01:56.634Z,5.30
2022-11-27T01:06:02.422Z,5.30
2022-11-27T01:10:04.164Z,5.30
2022-11-27T01:14:07.406Z,5.30
2022-11-27T01:18:09.031Z,5.30
2022-11-27T01:22:10.679Z,5.30
2022-11-27T01:26:12.342Z,5.30
2022-11-27T01:30:14.303Z,5.30
2022-11-27T01:34:16.678Z,5.30
2022-11-27T01:38:18.263Z,5.20
2022-11-27T01:42:20.156Z,5.20
2022-11-27T01:46:38.969Z,5.20
2022-11-27T01:50:40.746Z,5.20
2022-11-27T01:54:42.626Z,5.20
2022-11-27T01:58:44.411Z,5.20
2022-11-27T02:02:46.563Z,5.20
2022-11-27T02:06:48.209Z,5.10
2022-11-27T02:11:08.656Z,5.20
2022-11-27T02:15:17.422Z,5.10
2022-11-27T02:19:22.030Z,5.10
2022-11-27T02:23:33.228Z,5.10
2022-11-27T02:27:43.929Z,5.10
2022-11-27T02:32:01.349Z,5.10
2022-11-27T02:36:07.943Z,5.10
2022-11-27T02:40:09.613Z,5.10
2022-11-27T02:44:11.733Z,5.10
2022-11-27T02:48:14.551Z,5.10
2022-11-27T02:52:17.667Z,5.00
2022-11-27T02:56:21.831Z,5.10
2022-11-27T03:00:23.521Z,5.10
2022-11-27T03:04:27.648Z,5.10
2022-11-27T03:08:41.213Z,5.10
2022-11-27T03:12:42.780Z,5.20
2022-11-27T03:16:49.434Z,5.10
2022-11-27T03:20:57.211Z,5.20
2022-11-27T03:24:58.998Z,5.30
2022-11-27T03:29:02.033Z,5.40
2022-11-27T03:33:03.781Z,5.40
2022-11-27T03:37:05.702Z,5.50
2022-11-27T03:41:11.718Z,5.50
2022-11-27T03:45:19.463Z,5.50
2022-11-27T03:49:25.094Z,5.50
2022-11-27T03:53:45.579Z,5.50
2022-11-27T03:57:53.370Z,5.50
2022-11-27T04:01:54.989Z,5.60
2022-11-27T04:05:57.007Z,5.60
2022-11-27T04:09:58.532Z,5.60
2022-11-27T04:14:00.229Z,5.70
2022-11-27T04:18:01.851Z,5.70
2022-11-27T04:22:03.504Z,5.70
2022-11-27T04:26:05.595Z,5.70
2022-11-27T04:30:10.817Z,5.70
2022-11-27T04:34:12.401Z,5.70
2022-11-27T04:38:14.068Z,5.80
2022-11-27T04:42:15.718Z,5.80
2022-11-27T04:46:17.354Z,5.80
2022-11-27T04:50:19.053Z,5.90
2022-11-27T04:54:20.874Z,6.10
2022-11-27T04:58:22.545Z,6.10
2022-11-27T05:02:24.226Z,6.10
2022-11-27T05:06:25.940Z,6.10
2022-11-27T05:10:27.518Z,6.20
2022-11-27T05:14:29.341Z,6.20
2022-11-27T05:18:30.936Z,6.20
2022-11-27T05:22:32.531Z,6.20
2022-11-27T05:26:34.312Z,6.20
2022-11-27T05:30:36.273Z,6.20
2022-11-27T05:34:38.051Z,6.30
2022-11-27T05:38:40.334Z,6.40
2022-11-27T05:42:41.919Z,6.40
2022-11-27T05:46:43.864Z,6.50
2022-11-27T05:50:46.105Z,6.50
2022-11-27T05:54:47.852Z,6.50
2022-11-27T05:58:49.598Z,6.50
2022-11-27T06:02:51.290Z,6.40
2022-11-27T06:06:52.972Z,6.40
2022-11-27T06:10:54.560Z,6.40
2022-11-27T06:14:56.178Z,6.50
2022-11-27T06:18:57.749Z,6.40
2022-11-27T06:22:59.399Z,6.40
2022-11-27T06:27:01.083Z,6.40
2022-11-27T06:31:14.414Z,6.40
2022-11-27T06:35:19.078Z,6.40
2022-11-27T06:39:20.705Z,6.40
2022-11-27T06:43:22.291Z,6.40
2022-11-27T06:47:23.999Z,6.50
2022-11-27T06:51:26.831Z,6.50
2022-11-27T06:55:28.762Z,6.60
2022-11-27T06:59:30.392Z,6.60
2022-11-27T07:03:31.998Z,6.70
2022-11-27T07:07:33.716Z,6.70
2022-11-27T07:11:36.029Z,6.60
2022-11-27T07:15:37.739Z,6.70
2022-11-27T07:19:39.366Z,6.70
2022-11-27T07:23:41.098Z,6.80
2022-11-27T07:27:42.872Z,6.80
2022-11-27T07:31:46.469Z,6.80
2022-11-27T07:35:48.189Z,6.80
2022-11-27T07:40:04.744Z,6.80
2022-11-27T07:44:13.386Z,6.80
2022-11-27T07:48:18.388Z,6.90
2022-11-27T07:52:20.132Z,6.90
2022-11-27T07:56:21.872Z,7.00
2022-11-27T08:00:25.921Z,7.00
2022-11-27T08:04:27.790Z,7.10
2022-11-27T08:08:29.652Z,7.30
2022-11-27T08:12:31.400Z,7.40
2022-11-27T08:16:33.996Z,7.40
2022-11-27T08:20:36.107Z,7.60
2022-11-27T08:24:39.034Z,7.70
2022-11-27T08:28:45.808Z,7.70
2022-11-27T08:32:47.616Z,7.70
2022-11-27T08:36:49.594Z,7.70
2022-11-27T08:41:00.224Z,7.70
2022-11-27T08:45:01.853Z,7.80
2022-11-27T08:49:05.420Z,7.80
2022-11-27T08:53:07.112Z,7.90
2022-11-27T08:57:08.847Z,8.00
2022-11-27T09:01:18.389Z,8.10
2022-11-27T09:05:20.751Z,8.10
2022-11-27T09:09:22.914Z,8.10
2022-11-27T09:13:24.781Z,8.00
2022-11-27T09:17:26.384Z,8.10
2022-11-27T09:21:30.608Z,8.20
2022-11-27T09:25:32.391Z,8.30
2022-11-27T09:29:34.738Z,8.40
2022-11-27T09:33:37.380Z,8.50
2022-11-27T09:37:39.059Z,8.50
2022-11-27T09:41:52.036Z,8.60
2022-11-27T09:45:57.123Z,8.60
2022-11-27T09:50:05.177Z,8.50
2022-11-27T09:54:12.836Z,8.50
2022-11-27T09:58:17.999Z,8.50
2022-11-27T10:02:25.792Z,8.60
2022-11-27T10:06:40.114Z,8.70
2022-11-27T10:10:41.933Z,8.70
2022-11-27T10:15:00.858Z,8.80
2022-11-27T10:19:29.171Z,8.80
2022-11-27T10:23:33.824Z,8.80
2022-11-27T10:27:50.755Z,8.80
2022-11-27T10:31:54.773Z,8.90
2022-11-27T10:35:56.931Z,8.80
2022-11-27T10:40:07.888Z,8.80
2022-11-27T10:44:22.783Z,8.80
2022-11-27T10:48:24.535Z,8.80
2022-11-27T10:52:26.809Z,8.90
2022-11-27T10:56:40.825Z,8.90
2022-11-27T11:00:42.484Z,8.80
2022-11-27T11:04:44.105Z,8.90
2022-11-27T11:08:46.032Z,8.90
2022-11-27T11:12:47.636Z,8.90
2022-11-27T11:16:49.834Z,8.90
2022-11-27T11:20:53.363Z,8.90
2022-11-27T11:24:55.280Z,8.90
2022-11-27T11:29:00.902Z,8.90
2022-11-27T11:33:03.786Z,8.90
2022-11-27T11:37:07.319Z,8.90
2022-11-27T11:41:09.611Z,8.90
2022-11-27T11:45:11.424Z,8.90
2022-11-27T11:49:19.713Z,8.90
2022-11-27T11:53:38.106Z,8.90
2022-11-27T11:57:40.061Z,8.90
2022-11-27T12:01:59.974Z,9.00
2022-11-27T12:06:13.945Z,9.00
2022-11-27T12:10:18.637Z,9.10
2022-11-27T12:14:39.375Z,9.00
2022-11-27T12:19:00.189Z,9.00
2022-11-27T12:23:22.523Z,8.90
2022-11-27T12:27:33.772Z,8.80
2022-11-27T12:31:54.358Z,8.80
2022-11-27T12:36:20.165Z,8.70
2022-11-27T12:40:25.067Z,8.70
2022-11-27T12:44:30.946Z,8.60
2022-11-27T12:48:38.859Z,8.50
2022-11-27T12:52:46.117Z,8.50
2022-11-27T12:56:50.850Z,8.50
2022-11-27T13:00:55.147Z,8.50
2022-11-27T13:05:09.783Z,8.40
2022-11-27T13:09:18.505Z,8.40
2022-11-27T13:13:25.373Z,8.30
2022-11-27T13:17:32.588Z,8.40
2022-11-27T13:21:34.650Z,8.40
2022-11-27T13:25:41.210Z,8.40
2022-11-27T13:29:45.751Z,8.40
2022-11-27T13:33:47.454Z,8.50
2022-11-27T13:37:54.585Z,8.50
2022-11-27T13:42:00.489Z,8.50
2022-11-27T13:46:11.850Z,8.60
2022-11-27T13:50:14.843Z,8.60
2022-11-27T13:54:23.269Z,8.70
2022-11-27T13:58:30.682Z,8.70
2022-11-27T14:02:41.619Z,8.70
2022-11-27T14:06:45.464Z,8.70
2022-11-27T14:10:52.911Z,8.60
2022-11-27T14:15:06.626Z,8.60
2022-11-27T14:19:32.098Z,8.60
2022-11-27T14:23:36.916Z,8.50
2022-11-27T14:27:38.809Z,8.40
2022-11-27T14:31:40.624Z,8.40
2022-11-27T14:35:42.357Z,8.30
2022-11-27T14:39:44.202Z,8.20
2022-11-27T14:43:46.258Z,8.10
2022-11-27T14:47:49.672Z,8.20
2022-11-27T14:51:51.751Z,8.00
2022-11-27T14:55:55.054Z,7.90
2022-11-27T15:00:05.261Z,7.80
2022-11-27T15:04:24.889Z,7.80
2022-11-27T15:08:28.648Z,7.80
2022-11-27T15:12:32.312Z,7.80
2022-11-27T15:16:35.023Z,7.70
2022-11-27T15:20:42.823Z,7.60
2022-11-27T15:24:45.314Z,7.60
2022-11-27T15:28:48.741Z,7.60
2022-11-27T15:32:52.406Z,7.50
2022-11-27T15:36:57.425Z,7.50
2022-11-27T15:41:01.131Z,7.40
2022-11-27T15:45:03.044Z,7.40
2022-11-27T15:49:05.972Z,7.40
2022-11-27T15:53:09.488Z,7.40
2022-11-27T15:57:12.104Z,7.30
2022-11-27T16:01:20.922Z,7.30
2022-11-27T16:05:35.882Z,7.30
2022-11-27T16:15:04.463Z,7.40
2022-11-27T16:19:06.528Z,7.30
2022-11-27T16:23:08.242Z,7.40
2022-11-27T16:27:13.809Z,7.40
2022-11-27T16:31:18.714Z,7.40
2022-11-27T16:35:20.488Z,7.40
2022-11-27T16:39:25.084Z,7.40
2022-11-27T16:43:30.673Z,7.40
2022-11-27T16:47:34.028Z,7.40
2022-11-27T16:51:37.680Z,7.30
2022-11-27T16:55:40.591Z,7.40
2022-11-27T16:59:42.568Z,7.30
2022-11-27T17:03:44.292Z,7.30
2022-11-27T17:07:46.264Z,7.40
2022-11-27T17:11:49.842Z,7.40
2022-11-27T17:15:52.969Z,7.30
2022-11-27T17:20:00.453Z,7.30
2022-11-27T17:24:04.467Z,7.30
2022-11-27T17:28:26.704Z,7.30
2022-11-27T17:36:53.921Z,7.40
2022-11-27T17:41:36.953Z,7.40
2022-11-27T17:49:57.267Z,7.40
2022-11-27T17:54:02.968Z,7.30
2022-11-27T17:58:43.517Z,7.40
2022-11-27T18:02:49.211Z,7.40
2022-11-27T18:06:50.953Z,7.40
2022-11-27T18:10:52.662Z,7.40
2022-11-27T18:15:00.875Z,7.50
2022-11-27T18:19:08.901Z,7.50
2022-11-27T18:23:10.625Z,7.60
2022-11-27T18:27:16.708Z,7.60
2022-11-27T18:31:19.173Z,7.60
2022-11-27T18:35:23.987Z,7.60
2022-11-27T18:39:26.148Z,7.70
2022-11-27T18:43:31.569Z,7.60
2022-11-27T18:47:33.523Z,7.60
2022-11-27T18:51:38.425Z,7.60
2022-11-27T18:55:40.067Z,7.60
2022-11-27T18:59:45.333Z,7.60
2022-11-27T19:03:47.124Z,7.60
2022-11-27T19:07:48.774Z,7.70
2022-11-27T19:11:50.406Z,7.70
2022-11-27T19:15:52.189Z,7.70
2022-11-27T19:20:00.306Z,7.60
2022-11-27T19:24:03.141Z,7.60
2022-11-27T19:28:08.283Z,7.60
2022-11-27T19:32:10.413Z,7.60
2022-11-27T19:36:18.635Z,7.60
2022-11-27T19:40:20.774Z,7.60
2022-11-27T19:44:22.673Z,7.60
2022-11-27T19:48:24.692Z,7.60
2022-11-27T19:52:26.488Z,7.60
2022-11-27T19:56:30.423Z,7.70
2022-11-27T20:00:34.417Z,7.70
2022-11-27T20:04:36.249Z,7.70
2022-11-27T20:08:38.321Z,7.80
2022-11-27T20:12:40.004Z,7.80
2022-11-27T20:16:44.776Z,7.80
2022-11-27T20:20:46.608Z,7.90
2022-11-27T20:25:11.669Z,7.90
2022-11-27T20:29:11.023Z,7.90
2022-11-27T20:33:17.699Z,7.90
2022-11-27T20:37:19.507Z,7.90
2022-11-27T20:41:25.575Z,7.80
2022-11-27T20:45:27.320Z,7.70
2022-11-27T20:49:29.142Z,7.70
2022-11-27T20:53:31.524Z,7.60
2022-11-27T20:57:33.343Z,7.50
2022-11-27T21:01:36.423Z,7.50
2022-11-27T21:05:38.787Z,7.50
2022-11-27T21:09:40.753Z,7.50
2022-11-27T21:13:42.706Z,7.50
2022-11-27T21:17:44.562Z,7.50
2022-11-27T21:21:50.040Z,7.50
2022-11-27T21:25:51.695Z,7.60
2022-11-27T21:29:53.591Z,7.50
2022-11-27T21:33:56.796Z,7.50
2022-11-27T21:37:58.637Z,7.50
2022-11-27T21:42:00.386Z,7.50
2022-11-27T21:46:08.037Z,7.50
2022-11-27T21:50:10.009Z,7.50
2022-11-27T21:54:13.023Z,7.50
2022-11-27T21:58:14.662Z,7.60
2022-11-27T22:02:16.343Z,7.60
2022-11-27T22:06:18.343Z,7.60
2022-11-27T22:10:19.939Z,7.60
2022-11-27T22:14:21.524Z,7.70
2022-11-27T22:18:23.215Z,7.70
2022-11-27T22:22:24.791Z,7.70
2022-11-27T22:26:28.669Z,7.60
2022-11-27T22:30:30.317Z,7.60
2022-11-27T22:34:31.985Z,7.50
2022-11-27T22:38:33.646Z,7.40
2022-11-27T22:42:35.658Z,7.40
2022-11-27T22:46:39.496Z,7.30
2022-11-27T22:50:41.134Z,7.30
2022-11-27T22:54:42.994Z,7.30
2022-11-27T22:58:44.780Z,7.20
2022-11-27T23:02:46.508Z,7.20
2022-11-27T23:06:48.599Z,7.20
2022-11-27T23:10:50.525Z,7.10
2022-11-27T23:14:52.112Z,7.10
2022-11-27T23:18:53.719Z,7.10
2022-11-27T23:22:55.336Z,7.10
2022-11-27T23:26:56.919Z,7.10
2022-11-27T23:31:28.033Z,7.10
2022-11-27T23:35:24.183Z,7.20
2022-11-27T23:39:25.835Z,7.20
2022-11-27T23:43:28.061Z,7.20
2022-11-27T23:47:30.512Z,7.20
2022-11-27T23:51:32.930Z,7.20
2022-11-27T23:55:35.637Z,7.10
2022-11-27T23:59:40.258Z,7.10
